sensor_id;sensor_type;location;lat;lon;timestamp;P1;durP1;ratioP1;P2;durP2;ratioP2
56173;SDS011;42058;52.308;20.924;2022-12-29T00:00:04;12.47;;;6.10;;
56173;SDS011;42058;52.308;20.924;2022-12-29T00:02:40;11.00;;;5.60;;
56173;SDS011;42058;52.308;20.924;2022-12-29T00:05:06;15.45;;;5.97;;
56173;SDS011;42058;52.308;20.924;2022-12-29T00:07:33;11.95;;;5.60;;
56173;SDS011;42058;52.308;20.924;2022-12-29T00:09:59;10.75;;;5.78;;
56173;SDS011;42058;52.308;20.924;2022-12-29T00:12:26;9.93;;;5.40;;
56173;SDS011;42058;52.308;20.924;2022-12-29T00:14:54;14.07;;;5.62;;
56173;SDS011;42058;52.308;20.924;2022-12-29T00:17:38;11.10;;;5.97;;
56173;SDS011;42058;52.308;20.924;2022-12-29T00:20:04;10.95;;;5.42;;
56173;SDS011;42058;52.308;20.924;2022-12-29T00:22:50;11.45;;;5.10;;
56173;SDS011;42058;52.308;20.924;2022-12-29T00:25:35;11.45;;;5.20;;
56173;SDS011;42058;52.308;20.924;2022-12-29T00:28:15;11.93;;;5.30;;
56173;SDS011;42058;52.308;20.924;2022-12-29T00:31:00;10.65;;;5.08;;
56173;SDS011;42058;52.308;20.924;2022-12-29T00:33:45;12.78;;;5.37;;
56173;SDS011;42058;52.308;20.924;2022-12-29T00:36:38;12.47;;;5.28;;
56173;SDS011;42058;52.308;20.924;2022-12-29T00:39:07;10.78;;;5.62;;
56173;SDS011;42058;52.308;20.924;2022-12-29T00:42:03;10.30;;;5.17;;
56173;SDS011;42058;52.308;20.924;2022-12-29T00:44:49;10.85;;;5.45;;
56173;SDS011;42058;52.308;20.924;2022-12-29T00:47:15;10.53;;;4.90;;
56173;SDS011;42058;52.308;20.924;2022-12-29T00:49:41;12.05;;;5.12;;
56173;SDS011;42058;52.308;20.924;2022-12-29T00:52:08;11.85;;;5.37;;
56173;SDS011;42058;52.308;20.924;2022-12-29T00:54:37;13.68;;;5.40;;
56173;SDS011;42058;52.308;20.924;2022-12-29T00:57:06;12.65;;;5.42;;
56173;SDS011;42058;52.308;20.924;2022-12-29T00:59:35;11.15;;;5.42;;
56173;SDS011;42058;52.308;20.924;2022-12-29T01:02:03;13.18;;;5.87;;
56173;SDS011;42058;52.308;20.924;2022-12-29T01:04:30;10.00;;;5.70;;
56173;SDS011;42058;52.308;20.924;2022-12-29T01:06:57;9.28;;;5.20;;
56173;SDS011;42058;52.308;20.924;2022-12-29T01:09:23;10.88;;;5.50;;
56173;SDS011;42058;52.308;20.924;2022-12-29T01:12:08;10.25;;;5.35;;
56173;SDS011;42058;52.308;20.924;2022-12-29T01:14:35;8.60;;;4.70;;
56173;SDS011;42058;52.308;20.924;2022-12-29T01:17:02;11.88;;;5.30;;
56173;SDS011;42058;52.308;20.924;2022-12-29T01:19:29;13.32;;;5.08;;
56173;SDS011;42058;52.308;20.924;2022-12-29T01:21:56;9.80;;;5.00;;
56173;SDS011;42058;52.308;20.924;2022-12-29T01:24:22;8.00;;;4.53;;
56173;SDS011;42058;52.308;20.924;2022-12-29T01:26:49;9.55;;;4.58;;
56173;SDS011;42058;52.308;20.924;2022-12-29T01:29:16;10.38;;;4.80;;
56173;SDS011;42058;52.308;20.924;2022-12-29T01:31:44;8.58;;;4.40;;
56173;SDS011;42058;52.308;20.924;2022-12-29T01:34:11;9.23;;;4.22;;
56173;SDS011;42058;52.308;20.924;2022-12-29T01:36:38;9.60;;;4.25;;
56173;SDS011;42058;52.308;20.924;2022-12-29T01:39:04;9.05;;;4.60;;
56173;SDS011;42058;52.308;20.924;2022-12-29T01:41:31;9.85;;;4.60;;
56173;SDS011;42058;52.308;20.924;2022-12-29T01:43:58;9.75;;;4.70;;
56173;SDS011;42058;52.308;20.924;2022-12-29T01:46:34;6.30;;;3.60;;
56173;SDS011;42058;52.308;20.924;2022-12-29T01:51:41;8.30;;;4.50;;
56173;SDS011;42058;52.308;20.924;2022-12-29T01:54:16;11.80;;;4.33;;
56173;SDS011;42058;52.308;20.924;2022-12-29T01:56:49;7.00;;;4.15;;
56173;SDS011;42058;52.308;20.924;2022-12-29T01:59:18;8.05;;;4.00;;
56173;SDS011;42058;52.308;20.924;2022-12-29T02:01:49;7.37;;;4.28;;
56173;SDS011;42058;52.308;20.924;2022-12-29T02:04:16;9.75;;;4.53;;
56173;SDS011;42058;52.308;20.924;2022-12-29T02:06:57;9.83;;;4.85;;
56173;SDS011;42058;52.308;20.924;2022-12-29T02:09:27;8.18;;;4.47;;
56173;SDS011;42058;52.308;20.924;2022-12-29T02:11:53;8.85;;;4.33;;
56173;SDS011;42058;52.308;20.924;2022-12-29T02:14:19;6.92;;;4.03;;
56173;SDS011;42058;52.308;20.924;2022-12-29T02:23:04;8.00;;;3.90;;
56173;SDS011;42058;52.308;20.924;2022-12-29T02:31:40;12.37;;;4.45;;
56173;SDS011;42058;52.308;20.924;2022-12-29T02:34:16;8.18;;;4.42;;
56173;SDS011;42058;52.308;20.924;2022-12-29T02:39:44;7.85;;;3.90;;
56173;SDS011;42058;52.308;20.924;2022-12-29T02:42:22;7.25;;;4.20;;
56173;SDS011;42058;52.308;20.924;2022-12-29T02:45:05;10.28;;;4.12;;
56173;SDS011;42058;52.308;20.924;2022-12-29T02:47:47;9.48;;;4.50;;
56173;SDS011;42058;52.308;20.924;2022-12-29T02:50:33;8.60;;;4.25;;
56173;SDS011;42058;52.308;20.924;2022-12-29T02:53:05;8.08;;;3.85;;
56173;SDS011;42058;52.308;20.924;2022-12-29T02:55:34;10.40;;;4.33;;
56173;SDS011;42058;52.308;20.924;2022-12-29T02:58:20;7.15;;;4.30;;
56173;SDS011;42058;52.308;20.924;2022-12-29T03:01:04;10.15;;;4.17;;
56173;SDS011;42058;52.308;20.924;2022-12-29T03:03:39;6.20;;;3.62;;
56173;SDS011;42058;52.308;20.924;2022-12-29T03:09:03;10.55;;;4.65;;
56173;SDS011;42058;52.308;20.924;2022-12-29T03:11:40;10.60;;;4.00;;
56173;SDS011;42058;52.308;20.924;2022-12-29T03:14:33;8.00;;;3.77;;
56173;SDS011;42058;52.308;20.924;2022-12-29T03:17:20;11.65;;;4.40;;
56173;SDS011;42058;52.308;20.924;2022-12-29T03:19:59;10.20;;;3.95;;
56173;SDS011;42058;52.308;20.924;2022-12-29T03:22:29;6.50;;;3.60;;
56173;SDS011;42058;52.308;20.924;2022-12-29T03:25:06;9.60;;;4.12;;
56173;SDS011;42058;52.308;20.924;2022-12-29T03:30:33;7.83;;;4.40;;
56173;SDS011;42058;52.308;20.924;2022-12-29T03:33:02;8.08;;;4.20;;
56173;SDS011;42058;52.308;20.924;2022-12-29T03:35:34;8.70;;;4.55;;
56173;SDS011;42058;52.308;20.924;2022-12-29T03:38:16;8.93;;;4.20;;
56173;SDS011;42058;52.308;20.924;2022-12-29T03:40:52;7.92;;;4.10;;
56173;SDS011;42058;52.308;20.924;2022-12-29T03:43:24;6.80;;;3.67;;
56173;SDS011;42058;52.308;20.924;2022-12-29T03:45:53;9.23;;;4.20;;
56173;SDS011;42058;52.308;20.924;2022-12-29T03:48:20;9.25;;;3.80;;
56173;SDS011;42058;52.308;20.924;2022-12-29T03:50:46;8.83;;;4.37;;
56173;SDS011;42058;52.308;20.924;2022-12-29T03:53:12;7.85;;;3.95;;
56173;SDS011;42058;52.308;20.924;2022-12-29T03:55:38;7.15;;;3.62;;
56173;SDS011;42058;52.308;20.924;2022-12-29T03:58:05;8.95;;;4.08;;
56173;SDS011;42058;52.308;20.924;2022-12-29T04:00:33;7.30;;;3.92;;
56173;SDS011;42058;52.308;20.924;2022-12-29T04:02:59;6.53;;;3.83;;
56173;SDS011;42058;52.308;20.924;2022-12-29T04:05:25;8.85;;;4.37;;
56173;SDS011;42058;52.308;20.924;2022-12-29T04:07:53;7.08;;;4.03;;
56173;SDS011;42058;52.308;20.924;2022-12-29T04:10:20;5.60;;;3.55;;
56173;SDS011;42058;52.308;20.924;2022-12-29T04:12:48;9.20;;;3.98;;
56173;SDS011;42058;52.308;20.924;2022-12-29T04:15:14;8.53;;;4.42;;
56173;SDS011;42058;52.308;20.924;2022-12-29T04:17:41;10.48;;;4.20;;
56173;SDS011;42058;52.308;20.924;2022-12-29T04:20:07;7.50;;;4.00;;
56173;SDS011;42058;52.308;20.924;2022-12-29T04:22:59;8.55;;;4.40;;
56173;SDS011;42058;52.308;20.924;2022-12-29T04:25:28;6.47;;;4.15;;
56173;SDS011;42058;52.308;20.924;2022-12-29T04:27:54;8.45;;;4.20;;
56173;SDS011;42058;52.308;20.924;2022-12-29T04:30:39;9.73;;;4.37;;
56173;SDS011;42058;52.308;20.924;2022-12-29T04:33:07;7.60;;;3.60;;
56173;SDS011;42058;52.308;20.924;2022-12-29T04:35:33;7.72;;;3.83;;
56173;SDS011;42058;52.308;20.924;2022-12-29T04:37:59;7.65;;;3.77;;
56173;SDS011;42058;52.308;20.924;2022-12-29T04:40:27;10.23;;;3.95;;
56173;SDS011;42058;52.308;20.924;2022-12-29T04:42:54;9.05;;;3.92;;
56173;SDS011;42058;52.308;20.924;2022-12-29T04:45:21;7.35;;;3.87;;
56173;SDS011;42058;52.308;20.924;2022-12-29T04:47:49;7.40;;;3.67;;
56173;SDS011;42058;52.308;20.924;2022-12-29T04:50:34;8.45;;;4.10;;
56173;SDS011;42058;52.308;20.924;2022-12-29T04:53:02;8.65;;;4.00;;
56173;SDS011;42058;52.308;20.924;2022-12-29T04:55:28;10.58;;;4.28;;
56173;SDS011;42058;52.308;20.924;2022-12-29T04:57:55;7.40;;;3.72;;
56173;SDS011;42058;52.308;20.924;2022-12-29T05:00:21;9.43;;;4.12;;
56173;SDS011;42058;52.308;20.924;2022-12-29T05:02:48;9.20;;;4.55;;
56173;SDS011;42058;52.308;20.924;2022-12-29T05:05:14;8.33;;;4.12;;
56173;SDS011;42058;52.308;20.924;2022-12-29T05:07:42;10.78;;;4.40;;
56173;SDS011;42058;52.308;20.924;2022-12-29T05:10:09;11.03;;;5.08;;
56173;SDS011;42058;52.308;20.924;2022-12-29T05:12:37;8.25;;;4.20;;
56173;SDS011;42058;52.308;20.924;2022-12-29T05:15:04;8.80;;;4.37;;
56173;SDS011;42058;52.308;20.924;2022-12-29T05:17:33;10.28;;;4.55;;
56173;SDS011;42058;52.308;20.924;2022-12-29T05:19:59;8.28;;;4.20;;
56173;SDS011;42058;52.308;20.924;2022-12-29T05:22:25;12.55;;;5.05;;
56173;SDS011;42058;52.308;20.924;2022-12-29T05:24:53;13.65;;;5.78;;
56173;SDS011;42058;52.308;20.924;2022-12-29T05:27:19;9.15;;;4.62;;
56173;SDS011;42058;52.308;20.924;2022-12-29T05:30:03;11.53;;;4.65;;
56173;SDS011;42058;52.308;20.924;2022-12-29T05:32:30;9.88;;;4.65;;
56173;SDS011;42058;52.308;20.924;2022-12-29T05:34:56;11.57;;;5.15;;
56173;SDS011;42058;52.308;20.924;2022-12-29T05:37:23;9.43;;;5.15;;
56173;SDS011;42058;52.308;20.924;2022-12-29T05:39:49;12.07;;;5.30;;
56173;SDS011;42058;52.308;20.924;2022-12-29T05:42:16;10.20;;;5.47;;
56173;SDS011;42058;52.308;20.924;2022-12-29T05:44:53;15.65;;;5.53;;
56173;SDS011;42058;52.308;20.924;2022-12-29T05:47:33;12.35;;;5.55;;
56173;SDS011;42058;52.308;20.924;2022-12-29T05:50:11;13.10;;;5.70;;
56173;SDS011;42058;52.308;20.924;2022-12-29T05:52:57;15.95;;;5.37;;
56173;SDS011;42058;52.308;20.924;2022-12-29T05:55:23;11.95;;;5.15;;
56173;SDS011;42058;52.308;20.924;2022-12-29T05:57:51;12.50;;;5.78;;
56173;SDS011;42058;52.308;20.924;2022-12-29T06:00:17;10.43;;;5.62;;
56173;SDS011;42058;52.308;20.924;2022-12-29T06:02:45;12.50;;;5.53;;
56173;SDS011;42058;52.308;20.924;2022-12-29T06:05:12;10.28;;;4.72;;
56173;SDS011;42058;52.308;20.924;2022-12-29T06:07:39;12.33;;;5.87;;
56173;SDS011;42058;52.308;20.924;2022-12-29T06:10:05;15.05;;;5.95;;
56173;SDS011;42058;52.308;20.924;2022-12-29T06:12:34;9.95;;;5.30;;
56173;SDS011;42058;52.308;20.924;2022-12-29T06:15:00;13.65;;;5.47;;
56173;SDS011;42058;52.308;20.924;2022-12-29T06:17:26;12.03;;;4.92;;
56173;SDS011;42058;52.308;20.924;2022-12-29T06:19:53;12.55;;;5.45;;
56173;SDS011;42058;52.308;20.924;2022-12-29T06:22:19;14.13;;;5.05;;
56173;SDS011;42058;52.308;20.924;2022-12-29T06:24:45;13.95;;;5.78;;
56173;SDS011;42058;52.308;20.924;2022-12-29T06:27:12;11.50;;;6.20;;
56173;SDS011;42058;52.308;20.924;2022-12-29T06:29:39;12.93;;;5.87;;
56173;SDS011;42058;52.308;20.924;2022-12-29T06:32:07;13.65;;;5.80;;
56173;SDS011;42058;52.308;20.924;2022-12-29T06:34:34;11.70;;;5.33;;
56173;SDS011;42058;52.308;20.924;2022-12-29T06:37:00;9.88;;;5.20;;
56173;SDS011;42058;52.308;20.924;2022-12-29T06:39:27;13.72;;;5.83;;
56173;SDS011;42058;52.308;20.924;2022-12-29T06:41:55;12.88;;;5.65;;
56173;SDS011;42058;52.308;20.924;2022-12-29T06:44:23;10.68;;;5.00;;
56173;SDS011;42058;52.308;20.924;2022-12-29T06:46:51;12.90;;;5.42;;
56173;SDS011;42058;52.308;20.924;2022-12-29T06:49:17;13.62;;;5.37;;
56173;SDS011;42058;52.308;20.924;2022-12-29T06:51:44;14.50;;;6.12;;
56173;SDS011;42058;52.308;20.924;2022-12-29T06:54:10;12.80;;;5.58;;
56173;SDS011;42058;52.308;20.924;2022-12-29T06:56:37;12.93;;;5.47;;
56173;SDS011;42058;52.308;20.924;2022-12-29T06:59:03;12.93;;;5.50;;
56173;SDS011;42058;52.308;20.924;2022-12-29T07:01:29;11.48;;;5.50;;
56173;SDS011;42058;52.308;20.924;2022-12-29T07:03:55;11.80;;;5.17;;
56173;SDS011;42058;52.308;20.924;2022-12-29T07:06:21;11.78;;;5.25;;
56173;SDS011;42058;52.308;20.924;2022-12-29T07:08:47;14.07;;;5.90;;
56173;SDS011;42058;52.308;20.924;2022-12-29T07:11:13;14.47;;;5.20;;
56173;SDS011;42058;52.308;20.924;2022-12-29T07:13:39;11.73;;;5.10;;
56173;SDS011;42058;52.308;20.924;2022-12-29T07:16:11;10.38;;;5.72;;
56173;SDS011;42058;52.308;20.924;2022-12-29T07:18:35;11.33;;;5.40;;
56173;SDS011;42058;52.308;20.924;2022-12-29T07:21:02;14.07;;;5.00;;
56173;SDS011;42058;52.308;20.924;2022-12-29T07:23:28;23.18;;;7.90;;
56173;SDS011;42058;52.308;20.924;2022-12-29T07:26:01;15.05;;;5.97;;
56173;SDS011;42058;52.308;20.924;2022-12-29T07:28:30;11.80;;;5.30;;
56173;SDS011;42058;52.308;20.924;2022-12-29T07:31:00;12.82;;;5.20;;
56173;SDS011;42058;52.308;20.924;2022-12-29T07:33:30;17.65;;;5.25;;
56173;SDS011;42058;52.308;20.924;2022-12-29T07:35:57;39.65;;;5.75;;
56173;SDS011;42058;52.308;20.924;2022-12-29T07:38:25;30.92;;;6.45;;
56173;SDS011;42058;52.308;20.924;2022-12-29T07:40:55;25.65;;;5.95;;
56173;SDS011;42058;52.308;20.924;2022-12-29T07:43:24;25.68;;;5.78;;
56173;SDS011;42058;52.308;20.924;2022-12-29T07:45:53;31.60;;;5.30;;
56173;SDS011;42058;52.308;20.924;2022-12-29T07:48:21;49.95;;;5.97;;
56173;SDS011;42058;52.308;20.924;2022-12-29T07:50:47;37.93;;;5.08;;
56173;SDS011;42058;52.308;20.924;2022-12-29T07:53:13;9.53;;;4.50;;
56173;SDS011;42058;52.308;20.924;2022-12-29T07:55:40;20.85;;;4.42;;
56173;SDS011;42058;52.308;20.924;2022-12-29T07:58:07;12.43;;;4.95;;
56173;SDS011;42058;52.308;20.924;2022-12-29T08:00:33;19.95;;;5.00;;
56173;SDS011;42058;52.308;20.924;2022-12-29T08:02:59;12.73;;;4.60;;
56173;SDS011;42058;52.308;20.924;2022-12-29T08:05:26;8.38;;;4.85;;
56173;SDS011;42058;52.308;20.924;2022-12-29T08:07:52;17.17;;;5.42;;
56173;SDS011;42058;52.308;20.924;2022-12-29T08:10:18;27.15;;;6.50;;
56173;SDS011;42058;52.308;20.924;2022-12-29T08:12:44;27.45;;;5.10;;
56173;SDS011;42058;52.308;20.924;2022-12-29T08:15:11;29.87;;;5.45;;
56173;SDS011;42058;52.308;20.924;2022-12-29T08:17:37;38.10;;;5.40;;
56173;SDS011;42058;52.308;20.924;2022-12-29T08:20:04;29.70;;;5.72;;
56173;SDS011;42058;52.308;20.924;2022-12-29T08:22:31;29.48;;;5.10;;
56173;SDS011;42058;52.308;20.924;2022-12-29T08:24:57;60.15;;;5.50;;
56173;SDS011;42058;52.308;20.924;2022-12-29T08:27:23;20.57;;;5.00;;
56173;SDS011;42058;52.308;20.924;2022-12-29T08:29:49;11.18;;;4.60;;
56173;SDS011;42058;52.308;20.924;2022-12-29T08:32:15;11.70;;;4.60;;
56173;SDS011;42058;52.308;20.924;2022-12-29T08:34:42;12.58;;;5.08;;
56173;SDS011;42058;52.308;20.924;2022-12-29T08:37:08;12.78;;;4.05;;
56173;SDS011;42058;52.308;20.924;2022-12-29T08:39:34;12.03;;;4.72;;
56173;SDS011;42058;52.308;20.924;2022-12-29T08:42:00;10.63;;;4.28;;
56173;SDS011;42058;52.308;20.924;2022-12-29T08:44:26;9.45;;;4.53;;
56173;SDS011;42058;52.308;20.924;2022-12-29T08:46:53;8.23;;;4.28;;
56173;SDS011;42058;52.308;20.924;2022-12-29T08:49:19;9.53;;;3.85;;
56173;SDS011;42058;52.308;20.924;2022-12-29T08:51:45;10.78;;;4.65;;
56173;SDS011;42058;52.308;20.924;2022-12-29T08:54:11;10.00;;;3.95;;
56173;SDS011;42058;52.308;20.924;2022-12-29T08:56:38;9.00;;;4.17;;
56173;SDS011;42058;52.308;20.924;2022-12-29T08:59:04;9.43;;;4.70;;
56173;SDS011;42058;52.308;20.924;2022-12-29T09:01:31;9.13;;;4.15;;
56173;SDS011;42058;52.308;20.924;2022-12-29T09:03:59;7.47;;;4.22;;
56173;SDS011;42058;52.308;20.924;2022-12-29T09:06:25;9.03;;;3.75;;
56173;SDS011;42058;52.308;20.924;2022-12-29T09:08:52;10.10;;;4.10;;
56173;SDS011;42058;52.308;20.924;2022-12-29T09:11:22;7.42;;;4.28;;
56173;SDS011;42058;52.308;20.924;2022-12-29T09:13:51;7.58;;;4.03;;
56173;SDS011;42058;52.308;20.924;2022-12-29T09:16:18;6.90;;;4.12;;
56173;SDS011;42058;52.308;20.924;2022-12-29T09:18:49;9.93;;;4.37;;
56173;SDS011;42058;52.308;20.924;2022-12-29T09:21:16;8.73;;;3.87;;
56173;SDS011;42058;52.308;20.924;2022-12-29T09:23:42;8.60;;;4.55;;
56173;SDS011;42058;52.308;20.924;2022-12-29T09:26:09;11.48;;;3.90;;
56173;SDS011;42058;52.308;20.924;2022-12-29T09:28:35;9.55;;;4.00;;
56173;SDS011;42058;52.308;20.924;2022-12-29T09:31:02;9.28;;;4.10;;
56173;SDS011;42058;52.308;20.924;2022-12-29T09:33:28;7.58;;;4.10;;
56173;SDS011;42058;52.308;20.924;2022-12-29T09:35:55;9.53;;;4.42;;
56173;SDS011;42058;52.308;20.924;2022-12-29T09:38:23;7.03;;;4.35;;
56173;SDS011;42058;52.308;20.924;2022-12-29T09:40:53;14.98;;;5.12;;
56173;SDS011;42058;52.308;20.924;2022-12-29T09:46:26;11.63;;;5.00;;
56173;SDS011;42058;52.308;20.924;2022-12-29T09:51:50;8.83;;;4.03;;
56173;SDS011;42058;52.308;20.924;2022-12-29T09:54:24;9.35;;;4.42;;
56173;SDS011;42058;52.308;20.924;2022-12-29T09:57:19;9.38;;;4.95;;
56173;SDS011;42058;52.308;20.924;2022-12-29T10:00:03;10.90;;;4.62;;
56173;SDS011;42058;52.308;20.924;2022-12-29T10:02:42;15.98;;;5.25;;
56173;SDS011;42058;52.308;20.924;2022-12-29T10:08:27;9.63;;;4.80;;
56173;SDS011;42058;52.308;20.924;2022-12-29T10:11:12;8.30;;;4.47;;
56173;SDS011;42058;52.308;20.924;2022-12-29T10:14:01;9.05;;;4.42;;
56173;SDS011;42058;52.308;20.924;2022-12-29T10:19:39;11.22;;;4.50;;
56173;SDS011;42058;52.308;20.924;2022-12-29T10:24:57;9.85;;;4.87;;
56173;SDS011;42058;52.308;20.924;2022-12-29T10:27:28;11.75;;;4.37;;
56173;SDS011;42058;52.308;20.924;2022-12-29T10:29:58;10.10;;;4.75;;
56173;SDS011;42058;52.308;20.924;2022-12-29T10:32:31;7.35;;;4.55;;
56173;SDS011;42058;52.308;20.924;2022-12-29T10:35:00;13.05;;;4.80;;
56173;SDS011;42058;52.308;20.924;2022-12-29T10:37:39;10.53;;;3.95;;
56173;SDS011;42058;52.308;20.924;2022-12-29T10:43:30;7.58;;;4.10;;
56173;SDS011;42058;52.308;20.924;2022-12-29T10:46:08;10.60;;;4.65;;
56173;SDS011;42058;52.308;20.924;2022-12-29T10:48:37;11.05;;;3.90;;
56173;SDS011;42058;52.308;20.924;2022-12-29T10:51:07;10.68;;;4.10;;
56173;SDS011;42058;52.308;20.924;2022-12-29T10:53:42;7.00;;;3.95;;
56173;SDS011;42058;52.308;20.924;2022-12-29T10:56:15;11.00;;;4.20;;
56173;SDS011;42058;52.308;20.924;2022-12-29T10:59:43;7.28;;;4.00;;
56173;SDS011;42058;52.308;20.924;2022-12-29T11:07:27;7.00;;;3.75;;
56173;SDS011;42058;52.308;20.924;2022-12-29T11:09:56;8.08;;;4.62;;
56173;SDS011;42058;52.308;20.924;2022-12-29T11:12:54;8.60;;;4.40;;
56173;SDS011;42058;52.308;20.924;2022-12-29T11:15:24;9.88;;;4.72;;
56173;SDS011;42058;52.308;20.924;2022-12-29T11:17:52;10.18;;;4.83;;
56173;SDS011;42058;52.308;20.924;2022-12-29T11:25:33;9.55;;;4.37;;
56173;SDS011;42058;52.308;20.924;2022-12-29T11:28:12;25.37;;;6.22;;
56173;SDS011;42058;52.308;20.924;2022-12-29T11:30:43;8.50;;;4.35;;
56173;SDS011;42058;52.308;20.924;2022-12-29T11:33:14;14.68;;;4.37;;
56173;SDS011;42058;52.308;20.924;2022-12-29T11:35:45;11.43;;;5.12;;
56173;SDS011;42058;52.308;20.924;2022-12-29T11:38:54;18.32;;;4.65;;
56173;SDS011;42058;52.308;20.924;2022-12-29T11:40:47;11.88;;;4.83;;
56173;SDS011;42058;52.308;20.924;2022-12-29T11:43:19;12.03;;;4.30;;
56173;SDS011;42058;52.308;20.924;2022-12-29T11:45:49;10.88;;;4.62;;
56173;SDS011;42058;52.308;20.924;2022-12-29T11:48:19;10.82;;;5.30;;
56173;SDS011;42058;52.308;20.924;2022-12-29T11:50:50;9.68;;;4.30;;
56173;SDS011;42058;52.308;20.924;2022-12-29T11:53:23;8.65;;;4.65;;
56173;SDS011;42058;52.308;20.924;2022-12-29T11:55:54;10.65;;;4.72;;
56173;SDS011;42058;52.308;20.924;2022-12-29T11:58:30;10.85;;;5.10;;
56173;SDS011;42058;52.308;20.924;2022-12-29T12:01:07;14.63;;;5.08;;
56173;SDS011;42058;52.308;20.924;2022-12-29T12:03:35;12.40;;;4.37;;
56173;SDS011;42058;52.308;20.924;2022-12-29T12:11:30;7.87;;;4.55;;
56173;SDS011;42058;52.308;20.924;2022-12-29T12:16:50;8.70;;;4.50;;
56173;SDS011;42058;52.308;20.924;2022-12-29T12:19:31;28.15;;;6.92;;
56173;SDS011;42058;52.308;20.924;2022-12-29T12:25:20;8.23;;;4.03;;
56173;SDS011;42058;52.308;20.924;2022-12-29T12:28:00;10.13;;;4.83;;
56173;SDS011;42058;52.308;20.924;2022-12-29T12:30:37;8.25;;;4.58;;
56173;SDS011;42058;52.308;20.924;2022-12-29T12:33:24;8.28;;;4.28;;
56173;SDS011;42058;52.308;20.924;2022-12-29T12:36:22;9.73;;;4.50;;
56173;SDS011;42058;52.308;20.924;2022-12-29T12:57:22;9.88;;;4.35;;
56173;SDS011;42058;52.308;20.924;2022-12-29T13:00:15;12.18;;;4.37;;
56173;SDS011;42058;52.308;20.924;2022-12-29T13:05:38;9.68;;;4.30;;
56173;SDS011;42058;52.308;20.924;2022-12-29T13:19:31;7.50;;;4.33;;
56173;SDS011;42058;52.308;20.924;2022-12-29T13:22:19;9.08;;;4.12;;
56173;SDS011;42058;52.308;20.924;2022-12-29T13:31:09;9.70;;;4.25;;
56173;SDS011;42058;52.308;20.924;2022-12-29T13:36:45;9.98;;;4.90;;
56173;SDS011;42058;52.308;20.924;2022-12-29T13:39:25;9.50;;;4.17;;
56173;SDS011;42058;52.308;20.924;2022-12-29T13:42:03;15.23;;;4.90;;
56173;SDS011;42058;52.308;20.924;2022-12-29T13:44:42;11.85;;;4.40;;
56173;SDS011;42058;52.308;20.924;2022-12-29T13:47:23;10.20;;;4.25;;
56173;SDS011;42058;52.308;20.924;2022-12-29T13:49:52;14.95;;;4.67;;
56173;SDS011;42058;52.308;20.924;2022-12-29T13:52:34;10.70;;;4.28;;
56173;SDS011;42058;52.308;20.924;2022-12-29T13:58:07;9.83;;;5.05;;
56173;SDS011;42058;52.308;20.924;2022-12-29T14:00:53;12.23;;;4.95;;
56173;SDS011;42058;52.308;20.924;2022-12-29T14:06:19;11.18;;;4.40;;
56173;SDS011;42058;52.308;20.924;2022-12-29T14:08:58;14.18;;;5.22;;
56173;SDS011;42058;52.308;20.924;2022-12-29T14:11:38;13.43;;;5.45;;
56173;SDS011;42058;52.308;20.924;2022-12-29T14:14:23;9.30;;;4.40;;
56173;SDS011;42058;52.308;20.924;2022-12-29T14:16:41;14.60;;;5.00;;
56173;SDS011;42058;52.308;20.924;2022-12-29T14:21:52;10.78;;;5.25;;
56173;SDS011;42058;52.308;20.924;2022-12-29T14:29:44;10.03;;;5.30;;
56173;SDS011;42058;52.308;20.924;2022-12-29T14:35:00;10.00;;;4.78;;
56173;SDS011;42058;52.308;20.924;2022-12-29T14:38:15;8.38;;;4.12;;
56173;SDS011;42058;52.308;20.924;2022-12-29T14:40:45;11.05;;;4.47;;
56173;SDS011;42058;52.308;20.924;2022-12-29T14:43:24;11.53;;;4.72;;
56173;SDS011;42058;52.308;20.924;2022-12-29T14:45:58;7.35;;;4.35;;
56173;SDS011;42058;52.308;20.924;2022-12-29T14:48:34;9.38;;;5.08;;
56173;SDS011;42058;52.308;20.924;2022-12-29T14:51:19;14.63;;;5.33;;
56173;SDS011;42058;52.308;20.924;2022-12-29T14:53:52;12.78;;;5.25;;
56173;SDS011;42058;52.308;20.924;2022-12-29T14:56:19;11.22;;;4.42;;
56173;SDS011;42058;52.308;20.924;2022-12-29T14:58:53;11.33;;;5.28;;
56173;SDS011;42058;52.308;20.924;2022-12-29T15:04:21;10.35;;;5.28;;
56173;SDS011;42058;52.308;20.924;2022-12-29T15:06:54;9.15;;;4.80;;
56173;SDS011;42058;52.308;20.924;2022-12-29T15:12:04;13.38;;;4.75;;
56173;SDS011;42058;52.308;20.924;2022-12-29T15:14:52;11.63;;;5.33;;
56173;SDS011;42058;52.308;20.924;2022-12-29T15:17:31;10.18;;;5.05;;
56173;SDS011;42058;52.308;20.924;2022-12-29T15:20:01;10.88;;;4.95;;
56173;SDS011;42058;52.308;20.924;2022-12-29T15:22:53;12.35;;;5.15;;
56173;SDS011;42058;52.308;20.924;2022-12-29T15:25:24;12.23;;;5.03;;
56173;SDS011;42058;52.308;20.924;2022-12-29T15:27:52;8.63;;;5.20;;
56173;SDS011;42058;52.308;20.924;2022-12-29T15:30:28;11.03;;;5.28;;
56173;SDS011;42058;52.308;20.924;2022-12-29T15:32:54;7.72;;;4.58;;
56173;SDS011;42058;52.308;20.924;2022-12-29T15:35:35;8.88;;;5.08;;
56173;SDS011;42058;52.308;20.924;2022-12-29T15:38:35;9.60;;;4.92;;
56173;SDS011;42058;52.308;20.924;2022-12-29T15:40:45;11.12;;;5.17;;
56173;SDS011;42058;52.308;20.924;2022-12-29T15:43:21;8.75;;;5.20;;
56173;SDS011;42058;52.308;20.924;2022-12-29T15:46:04;9.18;;;4.80;;
56173;SDS011;42058;52.308;20.924;2022-12-29T15:48:30;11.60;;;5.17;;
56173;SDS011;42058;52.308;20.924;2022-12-29T15:50:58;10.18;;;5.15;;
56173;SDS011;42058;52.308;20.924;2022-12-29T15:53:27;6.42;;;4.40;;
56173;SDS011;42058;52.308;20.924;2022-12-29T15:55:56;10.53;;;5.22;;
56173;SDS011;42058;52.308;20.924;2022-12-29T15:58:30;9.83;;;5.30;;
56173;SDS011;42058;52.308;20.924;2022-12-29T16:00:58;15.00;;;5.53;;
56173;SDS011;42058;52.308;20.924;2022-12-29T16:03:30;9.88;;;5.28;;
56173;SDS011;42058;52.308;20.924;2022-12-29T16:06:10;11.60;;;5.30;;
56173;SDS011;42058;52.308;20.924;2022-12-29T16:08:42;10.00;;;5.15;;
56173;SDS011;42058;52.308;20.924;2022-12-29T16:11:21;9.23;;;4.90;;
56173;SDS011;42058;52.308;20.924;2022-12-29T16:13:52;9.88;;;5.08;;
56173;SDS011;42058;52.308;20.924;2022-12-29T16:16:22;10.45;;;5.37;;
56173;SDS011;42058;52.308;20.924;2022-12-29T16:18:57;13.98;;;5.47;;
56173;SDS011;42058;52.308;20.924;2022-12-29T16:21:25;10.53;;;5.25;;
56173;SDS011;42058;52.308;20.924;2022-12-29T16:23:57;13.50;;;5.50;;
56173;SDS011;42058;52.308;20.924;2022-12-29T16:26:30;11.93;;;5.60;;
56173;SDS011;42058;52.308;20.924;2022-12-29T16:28:57;12.78;;;6.30;;
56173;SDS011;42058;52.308;20.924;2022-12-29T16:31:33;11.80;;;5.70;;
56173;SDS011;42058;52.308;20.924;2022-12-29T16:34:13;11.12;;;5.47;;
56173;SDS011;42058;52.308;20.924;2022-12-29T16:36:52;12.25;;;5.72;;
56173;SDS011;42058;52.308;20.924;2022-12-29T16:39:26;15.65;;;6.30;;
56173;SDS011;42058;52.308;20.924;2022-12-29T16:42:32;12.03;;;5.20;;
56173;SDS011;42058;52.308;20.924;2022-12-29T16:45:15;15.08;;;6.12;;
56173;SDS011;42058;52.308;20.924;2022-12-29T16:50:34;9.53;;;5.08;;
56173;SDS011;42058;52.308;20.924;2022-12-29T16:53:15;15.23;;;5.80;;
56173;SDS011;42058;52.308;20.924;2022-12-29T16:56:01;10.55;;;5.75;;
56173;SDS011;42058;52.308;20.924;2022-12-29T16:58:48;11.50;;;5.55;;
56173;SDS011;42058;52.308;20.924;2022-12-29T17:01:28;11.30;;;5.33;;
56173;SDS011;42058;52.308;20.924;2022-12-29T17:03:57;10.53;;;5.15;;